createdAt,value
2019-05-13T00:01:36.246Z,63.28
2019-05-13T00:04:03.594Z,63.43
2019-05-13T00:06:29.591Z,63.42
2019-05-13T00:08:55.738Z,63.25
2019-05-13T00:11:24.022Z,63.28
2019-05-13T00:13:49.862Z,63.37
2019-05-13T00:16:15.851Z,63.32
2019-05-13T00:18:41.714Z,63.17
2019-05-13T00:21:07.616Z,63.16
2019-05-13T00:23:34.075Z,63.21
2019-05-13T00:26:00.059Z,63.15
2019-05-13T00:28:25.927Z,63.20
2019-05-13T00:30:54.117Z,63.21
2019-05-13T00:33:19.720Z,63.26
2019-05-13T00:35:45.618Z,63.22
2019-05-13T00:38:13.955Z,63.20
2019-05-13T00:40:39.520Z,63.15
2019-05-13T00:43:05.482Z,63.26
2019-05-13T00:45:34.041Z,63.06
2019-05-13T00:47:59.338Z,63.18
2019-05-13T00:50:25.207Z,63.16
2019-05-13T00:52:53.483Z,63.00
2019-05-13T00:55:19.038Z,62.92
2019-05-13T00:57:44.890Z,62.81
2019-05-13T01:00:11.162Z,62.57
2019-05-13T01:02:37.049Z,62.60
2019-05-13T01:05:06.027Z,62.48
2019-05-13T01:07:34.070Z,62.61
2019-05-13T01:09:59.810Z,62.65
2019-05-13T01:12:25.678Z,62.73
2019-05-13T01:14:53.443Z,62.64
2019-05-13T01:17:20.092Z,62.60
2019-05-13T01:19:46.065Z,62.63
2019-05-13T01:22:13.515Z,62.51
2019-05-13T01:24:39.488Z,62.52
2019-05-13T01:27:05.370Z,62.60
2019-05-13T01:29:31.422Z,62.27
2019-05-13T01:31:57.433Z,61.79
2019-05-13T01:34:23.680Z,61.44
2019-05-13T01:36:49.737Z,61.73
2019-05-13T01:39:16.439Z,61.86
2019-05-13T01:41:43.848Z,61.57
2019-05-13T01:44:10.069Z,61.83
2019-05-13T01:46:36.055Z,61.44
2019-05-13T01:49:01.922Z,61.34
2019-05-13T01:51:28.006Z,60.92
2019-05-13T01:53:53.865Z,61.31
2019-05-13T01:56:19.714Z,61.33
2019-05-13T01:58:45.720Z,61.14
2019-05-13T02:01:13.684Z,61.07
2019-05-13T02:03:39.342Z,61.30
2019-05-13T02:06:05.529Z,61.25
2019-05-13T02:08:33.472Z,60.96
2019-05-13T02:10:59.161Z,60.95
2019-05-13T02:13:25.419Z,60.74
2019-05-13T02:15:51.786Z,60.73
2019-05-13T02:18:17.808Z,60.97
2019-05-13T02:20:44.456Z,61.04
2019-05-13T02:23:10.357Z,60.00
2019-05-13T02:25:36.331Z,60.67
2019-05-13T02:28:09.404Z,60.83
2019-05-13T02:30:30.074Z,60.68
2019-05-13T02:32:55.968Z,60.46
2019-05-13T02:35:23.158Z,60.52
2019-05-13T02:37:49.135Z,60.50
2019-05-13T02:40:14.976Z,60.67
2019-05-13T02:42:43.555Z,60.35
2019-05-13T02:45:12.085Z,60.49
2019-05-13T02:47:36.454Z,60.20
2019-05-13T02:50:05.286Z,59.94
2019-05-13T02:52:33.482Z,59.50
2019-05-13T02:54:59.022Z,59.98
2019-05-13T02:57:25.029Z,60.00
2019-05-13T02:59:52.649Z,60.10
2019-05-13T03:02:18.756Z,60.00
2019-05-13T03:04:44.833Z,60.02
2019-05-13T03:07:12.011Z,59.86
2019-05-13T03:09:38.154Z,59.74
2019-05-13T03:12:04.610Z,59.57
2019-05-13T03:14:32.276Z,59.43
2019-05-13T03:17:03.687Z,58.30
2019-05-13T03:19:32.936Z,59.27
2019-05-13T03:21:57.596Z,59.14
2019-05-13T03:24:23.629Z,59.43
2019-05-13T03:26:52.960Z,59.55
2019-05-13T03:29:17.433Z,59.39
2019-05-13T03:31:46.477Z,59.61
2019-05-13T03:34:15.815Z,59.41
2019-05-13T03:36:44.933Z,59.53
2019-05-13T03:39:14.494Z,59.42
2019-05-13T03:41:36.495Z,59.01
2019-05-13T03:44:04.250Z,59.13
2019-05-13T03:46:33.314Z,58.83
2019-05-13T03:49:02.412Z,58.34
2019-05-13T03:51:28.066Z,58.65
2019-05-13T03:53:54.919Z,58.98
2019-05-13T03:56:23.567Z,59.18
2019-05-13T03:58:49.135Z,58.97
2019-05-13T04:01:15.097Z,58.87
2019-05-13T04:03:43.872Z,58.34
2019-05-13T04:06:12.854Z,58.70
2019-05-13T04:08:36.682Z,58.28
2019-05-13T04:11:03.242Z,58.62
2019-05-13T04:13:29.222Z,58.87
2019-05-13T04:15:55.415Z,58.75
2019-05-13T04:18:23.555Z,58.38
2019-05-13T04:20:49.172Z,58.78
2019-05-13T04:23:15.220Z,58.25
2019-05-13T04:25:44.583Z,58.25
2019-05-13T04:28:09.165Z,58.02
2019-05-13T04:30:35.126Z,57.90
2019-05-13T04:33:02.344Z,57.83
2019-05-13T04:35:28.674Z,57.78
2019-05-13T04:37:54.686Z,57.44
2019-05-13T04:40:23.193Z,57.61
2019-05-13T04:42:48.537Z,57.89
2019-05-13T04:45:14.513Z,57.91
2019-05-13T04:47:43.236Z,57.94
2019-05-13T04:50:08.248Z,58.05
2019-05-13T04:52:34.238Z,57.46
2019-05-13T04:55:03.331Z,57.11
2019-05-13T04:57:28.087Z,56.92
2019-05-13T04:59:55.036Z,56.62
2019-05-13T05:02:37.497Z,56.64
2019-05-13T05:05:03.221Z,56.82
2019-05-13T05:07:42.088Z,56.93
2019-05-13T05:10:33.661Z,56.19
2019-05-13T05:13:12.778Z,56.36
2019-05-13T05:15:52.065Z,56.58
2019-05-13T05:18:21.982Z,56.55
2019-05-13T05:20:54.607Z,56.43
2019-05-13T05:23:25.310Z,56.68
2019-05-13T05:25:55.911Z,55.91
2019-05-13T05:28:41.211Z,56.00
2019-05-13T05:31:08.249Z,56.36
2019-05-13T05:33:52.857Z,55.68
2019-05-13T05:36:32.471Z,55.66
2019-05-13T05:39:01.725Z,55.85
2019-05-13T05:41:28.994Z,55.00
2019-05-13T05:43:56.305Z,53.96
2019-05-13T05:46:23.485Z,54.66
2019-05-13T05:48:52.996Z,54.41
2019-05-13T05:51:22.124Z,54.42
2019-05-13T05:53:48.137Z,54.56
2019-05-13T05:56:14.907Z,54.65
2019-05-13T05:58:41.928Z,54.56
2019-05-13T06:01:08.973Z,53.97
2019-05-13T06:03:35.339Z,54.22
2019-05-13T06:06:01.882Z,53.45
2019-05-13T06:08:27.909Z,52.93
2019-05-13T06:10:54.014Z,53.41
2019-05-13T06:13:21.442Z,53.29
2019-05-13T06:15:47.515Z,53.40
2019-05-13T06:18:13.355Z,53.59
2019-05-13T06:20:41.675Z,53.75
2019-05-13T06:23:07.167Z,53.34
2019-05-13T06:25:33.796Z,53.47
2019-05-13T06:28:01.796Z,53.10
2019-05-13T06:30:27.925Z,52.19
2019-05-13T06:32:53.909Z,52.80
2019-05-13T06:35:21.838Z,52.46
2019-05-13T06:37:47.743Z,52.59
2019-05-13T06:40:13.764Z,52.03
2019-05-13T06:42:41.727Z,52.50
2019-05-13T06:45:07.567Z,52.94
2019-05-13T06:47:36.160Z,52.37
2019-05-13T06:50:03.038Z,51.36
2019-05-13T06:52:31.283Z,51.10
2019-05-13T06:54:56.801Z,50.75
2019-05-13T06:57:23.001Z,51.47
2019-05-13T06:59:49.340Z,51.37
2019-05-13T07:02:15.237Z,50.42
2019-05-13T07:04:41.603Z,50.41
2019-05-13T07:07:13.188Z,50.46
2019-05-13T07:09:35.248Z,50.11
2019-05-13T07:12:03.211Z,49.94
2019-05-13T07:14:28.867Z,50.56
2019-05-13T07:16:55.092Z,50.45
2019-05-13T07:19:23.727Z,50.48
2019-05-13T07:21:49.031Z,49.61
2019-05-13T07:24:14.883Z,49.32
2019-05-13T07:26:41.887Z,48.98
2019-05-13T07:29:08.491Z,48.75
2019-05-13T07:31:34.824Z,49.03
2019-05-13T07:34:02.280Z,49.20
2019-05-13T07:36:28.666Z,49.60
2019-05-13T07:38:54.870Z,49.62
2019-05-13T07:41:33.081Z,48.57
2019-05-13T07:43:48.559Z,47.79
2019-05-13T07:46:14.708Z,47.89
2019-05-13T07:48:41.605Z,48.42
2019-05-13T07:51:07.834Z,47.33
2019-05-13T07:53:33.684Z,48.11
2019-05-13T07:56:01.982Z,48.73
2019-05-13T07:58:27.574Z,48.07
2019-05-13T08:00:53.454Z,48.04
2019-05-13T08:03:21.372Z,48.13
2019-05-13T08:05:47.223Z,48.10
2019-05-13T08:08:13.126Z,47.23
2019-05-13T08:10:41.421Z,47.35
2019-05-13T08:13:07.252Z,47.55
2019-05-13T08:15:33.121Z,46.95
2019-05-13T08:18:01.814Z,47.08
2019-05-13T08:20:26.967Z,46.69
2019-05-13T08:22:52.856Z,46.93
2019-05-13T08:25:22.180Z,46.95
2019-05-13T08:27:47.930Z,46.14
2019-05-13T08:30:17.897Z,46.39
2019-05-13T08:32:42.646Z,46.43
2019-05-13T08:35:09.980Z,46.53
2019-05-13T08:37:36.745Z,46.84
2019-05-13T08:40:04.520Z,46.71
2019-05-13T08:42:32.259Z,46.93
2019-05-13T08:44:58.210Z,46.73
2019-05-13T08:47:24.076Z,47.02
2019-05-13T08:49:52.073Z,47.07
2019-05-13T08:52:18.019Z,47.41
2019-05-13T08:54:43.864Z,46.73
2019-05-13T08:57:11.783Z,46.39
2019-05-13T08:59:37.572Z,46.35
2019-05-13T09:02:03.688Z,46.25
2019-05-13T09:04:31.550Z,45.66
2019-05-13T09:06:57.471Z,46.27
2019-05-13T09:09:23.327Z,46.26
2019-05-13T09:11:51.438Z,46.98
2019-05-13T09:14:17.110Z,47.13
2019-05-13T09:16:43.678Z,46.76
2019-05-13T09:19:15.767Z,46.49
2019-05-13T09:21:38.008Z,46.50
2019-05-13T09:24:20.835Z,46.95
2019-05-13T09:26:32.720Z,47.14
2019-05-13T09:28:58.565Z,47.13
2019-05-13T09:31:24.414Z,46.82
2019-05-13T09:33:52.069Z,46.84
2019-05-13T09:36:18.085Z,46.69
2019-05-13T09:38:43.950Z,46.63
2019-05-13T09:41:12.376Z,46.22
2019-05-13T09:43:38.608Z,46.58
2019-05-13T09:46:04.604Z,45.94
2019-05-13T09:48:32.003Z,45.51
2019-05-13T09:50:58.649Z,45.54
2019-05-13T09:53:24.514Z,46.48
2019-05-13T09:55:52.176Z,46.35
2019-05-13T09:58:18.435Z,45.10
2019-05-13T10:00:44.821Z,44.84
2019-05-13T10:03:13.472Z,44.58
2019-05-13T10:05:38.544Z,44.98
2019-05-13T10:08:04.419Z,45.03
2019-05-13T10:10:31.987Z,45.23
2019-05-13T10:13:09.236Z,45.18
2019-05-13T10:15:25.617Z,43.94
2019-05-13T10:17:52.691Z,43.97
2019-05-13T10:20:21.469Z,43.59
2019-05-13T10:22:47.416Z,44.82
2019-05-13T10:25:14.780Z,45.13
2019-05-13T10:27:41.907Z,44.95
2019-05-13T10:30:11.409Z,43.44
2019-05-13T10:32:37.626Z,43.72
2019-05-13T10:35:04.225Z,43.65
2019-05-13T10:37:30.202Z,43.91
2019-05-13T10:39:56.300Z,44.36
2019-05-13T10:42:22.360Z,44.57
2019-05-13T10:44:48.387Z,45.33
2019-05-13T10:47:14.365Z,45.89
2019-05-13T10:49:42.412Z,46.44
2019-05-13T10:52:07.917Z,46.73
2019-05-13T10:54:33.923Z,46.58
2019-05-13T10:57:00.779Z,46.21
2019-05-13T10:59:27.479Z,45.53
2019-05-13T11:01:53.605Z,45.16
2019-05-13T11:04:21.820Z,43.96
2019-05-13T11:06:47.235Z,42.82
2019-05-13T11:09:13.469Z,42.81
2019-05-13T11:11:41.399Z,42.53
2019-05-13T11:14:11.209Z,42.95
2019-05-13T11:16:35.053Z,42.96
2019-05-13T11:19:02.824Z,43.01
2019-05-13T11:21:28.609Z,43.37
2019-05-13T11:23:54.574Z,43.04
2019-05-13T11:26:22.113Z,43.00
2019-05-13T11:28:48.198Z,43.33
2019-05-13T11:31:14.362Z,43.90
2019-05-13T11:33:42.510Z,43.59
2019-05-13T11:36:08.094Z,44.46
2019-05-13T11:38:35.616Z,43.86
2019-05-13T11:41:02.570Z,43.87
2019-05-13T11:43:28.579Z,43.86
2019-05-13T11:45:54.947Z,43.83
2019-05-13T11:48:23.561Z,43.28
2019-05-13T11:50:50.438Z,43.44
2019-05-13T11:53:31.518Z,43.51
2019-05-13T11:55:44.348Z,42.73
2019-05-13T11:58:13.910Z,43.17
2019-05-13T12:00:45.359Z,42.96
2019-05-13T12:03:11.439Z,42.26
2019-05-13T12:05:37.357Z,42.74
2019-05-13T12:08:03.426Z,42.67
2019-05-13T12:10:32.475Z,41.82
2019-05-13T12:12:57.068Z,42.74
2019-05-13T12:15:33.481Z,42.94
2019-05-13T12:17:52.982Z,43.31
2019-05-13T12:20:18.495Z,42.94
2019-05-13T12:22:44.660Z,43.62
2019-05-13T12:25:13.870Z,43.58
2019-05-13T12:27:38.341Z,43.54
2019-05-13T12:30:05.699Z,42.59
2019-05-13T12:32:32.261Z,43.13
2019-05-13T12:34:58.329Z,43.65
2019-05-13T12:37:24.363Z,43.93
2019-05-13T12:39:53.010Z,44.36
2019-05-13T12:42:17.880Z,44.40
2019-05-13T12:45:00.231Z,43.98
2019-05-13T12:47:12.281Z,44.53
2019-05-13T12:49:38.361Z,44.55
2019-05-13T12:52:04.765Z,44.28
2019-05-13T12:54:32.437Z,44.55
2019-05-13T12:56:58.417Z,44.46
2019-05-13T12:59:24.454Z,43.32
2019-05-13T13:01:52.732Z,42.34
2019-05-13T13:04:18.243Z,43.31
2019-05-13T13:06:45.350Z,43.26
2019-05-13T13:09:12.698Z,42.16
2019-05-13T13:11:39.049Z,41.60
2019-05-13T13:14:10.493Z,42.53
2019-05-13T13:16:34.785Z,43.13
2019-05-13T13:19:02.491Z,41.83
2019-05-13T13:21:33.618Z,42.01
2019-05-13T13:23:56.298Z,41.58
2019-05-13T13:26:22.261Z,40.74
2019-05-13T13:28:48.221Z,40.64
2019-05-13T13:31:14.118Z,39.66
2019-05-13T13:33:43.428Z,40.46
2019-05-13T13:36:08.042Z,40.67
2019-05-13T13:38:34.034Z,40.27
2019-05-13T13:41:03.038Z,40.69
2019-05-13T13:43:27.837Z,40.25
2019-05-13T13:46:07.524Z,39.79
2019-05-13T13:48:25.355Z,39.20
2019-05-13T13:50:55.035Z,39.85
2019-05-13T13:53:17.065Z,39.43
2019-05-13T13:55:44.346Z,39.88
2019-05-13T13:58:14.123Z,39.79
2019-05-13T14:00:52.545Z,39.98
2019-05-13T14:03:06.779Z,40.91
2019-05-13T14:05:36.286Z,41.04
2019-05-13T14:08:01.641Z,40.12
2019-05-13T14:10:27.752Z,40.14
2019-05-13T14:12:53.877Z,39.77
2019-05-13T14:15:21.547Z,40.25
2019-05-13T14:17:47.547Z,40.68
2019-05-13T14:20:13.709Z,40.65
2019-05-13T14:22:41.893Z,39.87
2019-05-13T14:25:07.387Z,39.90
2019-05-13T14:27:33.460Z,40.74
2019-05-13T14:30:01.292Z,40.60
2019-05-13T14:32:27.094Z,40.76
2019-05-13T14:34:53.157Z,41.03
2019-05-13T14:37:19.052Z,39.94
2019-05-13T14:39:44.904Z,39.54
2019-05-13T14:42:11.596Z,40.75
2019-05-13T14:44:37.732Z,40.40
2019-05-13T14:47:03.589Z,40.36
2019-05-13T14:49:31.687Z,39.49
2019-05-13T14:51:57.235Z,39.33
2019-05-13T14:54:23.461Z,38.67
2019-05-13T14:56:52.064Z,38.99
2019-05-13T14:59:17.315Z,39.38
2019-05-13T15:01:43.262Z,38.93
2019-05-13T15:04:11.992Z,39.79
2019-05-13T15:06:36.982Z,39.72
2019-05-13T15:09:04.662Z,38.36
2019-05-13T15:11:32.562Z,38.25
2019-05-13T15:13:58.354Z,38.51
2019-05-13T15:16:24.352Z,39.35
2019-05-13T15:18:52.541Z,39.60
2019-05-13T15:21:17.986Z,38.83
2019-05-13T15:23:43.859Z,37.73
2019-05-13T15:26:11.661Z,38.14
2019-05-13T15:28:37.703Z,38.24
2019-05-13T15:31:03.551Z,37.59
2019-05-13T15:33:32.244Z,38.17
2019-05-13T15:35:57.268Z,37.88
2019-05-13T15:38:23.353Z,38.67
2019-05-13T15:40:51.988Z,39.17
2019-05-13T15:43:17.162Z,39.27
2019-05-13T15:45:43.038Z,39.23
2019-05-13T15:48:11.477Z,39.27
2019-05-13T15:50:36.957Z,39.17
2019-05-13T15:53:03.113Z,39.23
2019-05-13T15:55:29.227Z,38.45
2019-05-13T15:57:55.103Z,38.85
2019-05-13T16:00:21.980Z,39.13
2019-05-13T16:02:48.071Z,39.88
2019-05-13T16:05:14.025Z,40.21
2019-05-13T16:07:41.806Z,40.41
2019-05-13T16:10:08.032Z,40.19
2019-05-13T16:12:34.089Z,40.07
2019-05-13T16:15:02.114Z,39.81
2019-05-13T16:17:40.619Z,40.14
2019-05-13T16:19:55.374Z,40.14
2019-05-13T16:22:23.059Z,40.47
2019-05-13T16:24:49.213Z,39.29
2019-05-13T16:27:15.067Z,40.01
2019-05-13T16:29:42.160Z,40.57
2019-05-13T16:32:08.414Z,40.43
2019-05-13T16:34:34.304Z,39.69
2019-05-13T16:37:01.853Z,40.51
2019-05-13T16:39:27.903Z,40.17
2019-05-13T16:41:53.743Z,39.73
2019-05-13T16:44:22.276Z,38.98
2019-05-13T16:46:47.673Z,37.51
2019-05-13T16:49:13.813Z,38.71
2019-05-13T16:51:39.677Z,38.55
2019-05-13T16:54:05.690Z,38.09
2019-05-13T16:56:33.441Z,37.29
2019-05-13T16:59:01.452Z,37.37
2019-05-13T17:01:27.255Z,37.84
2019-05-13T17:03:53.222Z,38.40
2019-05-13T17:06:21.424Z,38.88
2019-05-13T17:08:47.158Z,38.57
2019-05-13T17:11:12.999Z,38.76
2019-05-13T17:13:39.373Z,39.02
2019-05-13T17:16:05.353Z,39.01
2019-05-13T17:18:32.464Z,39.22
2019-05-13T17:20:58.603Z,39.72
2019-05-13T17:23:24.631Z,40.05
2019-05-13T17:25:51.971Z,39.33
2019-05-13T17:28:18.159Z,38.83
2019-05-13T17:30:44.133Z,39.60
2019-05-13T17:33:11.766Z,40.05
2019-05-13T17:35:37.859Z,40.06
2019-05-13T17:38:04.003Z,40.26
2019-05-13T17:40:31.450Z,39.84
2019-05-13T17:42:57.447Z,40.36
2019-05-13T17:45:23.498Z,40.60
2019-05-13T17:47:49.381Z,40.31
2019-05-13T17:50:15.352Z,40.49
2019-05-13T17:52:41.495Z,40.64
2019-05-13T17:55:07.476Z,40.92
2019-05-13T17:57:33.370Z,40.85
2019-05-13T17:59:59.503Z,40.64
2019-05-13T18:02:25.350Z,40.70
2019-05-13T18:04:52.115Z,40.69
2019-05-13T18:07:18.257Z,40.16
2019-05-13T18:09:44.121Z,40.33
2019-05-13T18:12:11.590Z,39.30
2019-05-13T18:14:37.864Z,39.05
2019-05-13T18:17:03.865Z,39.25
2019-05-13T18:19:31.733Z,39.96
2019-05-13T18:21:57.557Z,39.76
2019-05-13T18:24:23.404Z,40.19
2019-05-13T18:26:51.939Z,40.37
2019-05-13T18:29:17.127Z,39.47
2019-05-13T18:31:42.982Z,39.27
2019-05-13T18:34:08.845Z,39.73
2019-05-13T18:36:34.860Z,39.73
2019-05-13T18:39:01.657Z,40.29
2019-05-13T18:41:27.707Z,40.50
2019-05-13T18:43:55.028Z,40.89
2019-05-13T18:46:21.730Z,41.04
2019-05-13T18:48:58.509Z,41.07
2019-05-13T18:51:15.709Z,40.96
2019-05-13T18:53:41.637Z,41.04
2019-05-13T18:56:07.449Z,40.34
2019-05-13T18:58:33.440Z,40.79
2019-05-13T19:01:01.334Z,40.79
2019-05-13T19:03:27.202Z,41.20
2019-05-13T19:05:53.240Z,41.05
2019-05-13T19:08:21.291Z,40.80
2019-05-13T19:10:46.896Z,40.91
2019-05-13T19:13:15.653Z,41.41
2019-05-13T19:15:41.491Z,41.61
2019-05-13T19:18:07.428Z,41.71
2019-05-13T19:20:33.493Z,41.56
2019-05-13T19:23:01.176Z,41.82
2019-05-13T19:25:27.182Z,41.86
2019-05-13T19:27:53.219Z,41.89
2019-05-13T19:30:21.153Z,41.80
2019-05-13T19:32:46.850Z,42.02
2019-05-13T19:35:12.928Z,42.01
2019-05-13T19:37:38.897Z,42.21
2019-05-13T19:40:05.443Z,42.32
2019-05-13T19:42:31.711Z,42.43
2019-05-13T19:44:57.559Z,42.52
2019-05-13T19:47:23.413Z,42.67
2019-05-13T19:49:52.151Z,42.72
2019-05-13T19:52:17.130Z,42.81
2019-05-13T19:54:43.008Z,42.81
2019-05-13T19:57:09.077Z,42.82
2019-05-13T19:59:34.968Z,42.85
2019-05-13T20:02:01.477Z,42.95
2019-05-13T20:04:27.598Z,43.23
2019-05-13T20:06:53.557Z,43.27
2019-05-13T20:09:21.493Z,43.20
2019-05-13T20:11:47.307Z,43.39
2019-05-13T20:14:13.147Z,43.49
2019-05-13T20:16:41.497Z,43.34
2019-05-13T20:19:06.880Z,43.41
2019-05-13T20:21:32.764Z,43.46
2019-05-13T20:23:58.778Z,43.49
2019-05-13T20:26:24.823Z,43.61
2019-05-13T20:28:51.329Z,43.77
2019-05-13T20:31:17.265Z,43.87
2019-05-13T20:33:43.223Z,43.88
2019-05-13T20:36:09.085Z,43.97
2019-05-13T20:38:34.949Z,44.03
2019-05-13T20:41:01.466Z,44.05
2019-05-13T20:43:27.497Z,44.17
2019-05-13T20:45:53.336Z,44.17
2019-05-13T20:48:21.093Z,44.26
2019-05-13T20:50:47.016Z,44.39
2019-05-13T20:53:12.882Z,44.49
2019-05-13T20:55:41.498Z,44.56
2019-05-13T20:58:06.845Z,44.63
2019-05-13T21:00:32.726Z,44.68
2019-05-13T21:02:58.829Z,44.77
2019-05-13T21:05:27.112Z,44.81
2019-05-13T21:07:52.985Z,44.80
2019-05-13T21:10:20.963Z,44.81
2019-05-13T21:12:46.651Z,44.94
2019-05-13T21:15:13.118Z,45.01
2019-05-13T21:17:39.250Z,45.13
2019-05-13T21:20:18.725Z,45.19
2019-05-13T21:22:33.000Z,45.25
2019-05-13T21:24:59.099Z,45.31
2019-05-13T21:27:25.073Z,45.39
2019-05-13T21:29:51.916Z,45.44
2019-05-13T21:32:18.205Z,45.50
2019-05-13T21:34:44.096Z,45.59
2019-05-13T21:37:11.501Z,45.64
2019-05-13T21:39:37.695Z,45.70
2019-05-13T21:42:03.719Z,45.78
2019-05-13T21:44:29.643Z,45.87
2019-05-13T21:46:55.770Z,45.94
2019-05-13T21:49:21.634Z,46.03
2019-05-13T21:51:48.594Z,46.11
2019-05-13T21:54:14.563Z,46.17
2019-05-13T21:56:42.406Z,46.24
2019-05-13T21:59:08.119Z,46.26
2019-05-13T22:01:34.160Z,46.30
2019-05-13T22:04:01.714Z,46.35
2019-05-13T22:06:27.790Z,46.37
2019-05-13T22:08:53.947Z,46.36
2019-05-13T22:11:22.041Z,46.40
2019-05-13T22:13:47.810Z,46.48
2019-05-13T22:16:13.829Z,46.51
2019-05-13T22:18:41.805Z,46.58
2019-05-13T22:21:07.675Z,46.57
2019-05-13T22:23:33.607Z,46.62
2019-05-13T22:26:01.519Z,46.68
2019-05-13T22:28:27.264Z,46.78
2019-05-13T22:30:53.400Z,46.87
2019-05-13T22:33:21.444Z,46.92
2019-05-13T22:35:47.054Z,46.94
2019-05-13T22:38:13.074Z,46.96
2019-05-13T22:40:38.934Z,47.02
2019-05-13T22:43:04.813Z,47.01
2019-05-13T22:45:31.330Z,47.04
2019-05-13T22:47:57.262Z,47.07
2019-05-13T22:50:23.123Z,47.16
2019-05-13T22:52:49.170Z,47.17
2019-05-13T22:55:15.156Z,47.22
2019-05-13T22:57:41.907Z,47.23
2019-05-13T23:00:08.309Z,47.27
2019-05-13T23:02:34.279Z,47.21
2019-05-13T23:05:01.713Z,47.33
2019-05-13T23:07:27.815Z,47.53
2019-05-13T23:09:53.666Z,47.42
2019-05-13T23:12:21.268Z,47.53
2019-05-13T23:14:47.444Z,47.61
2019-05-13T23:17:13.409Z,47.59
2019-05-13T23:19:41.353Z,47.82
2019-05-13T23:22:07.229Z,47.83
2019-05-13T23:24:33.145Z,47.89
2019-05-13T23:26:59.006Z,48.01
2019-05-13T23:29:25.018Z,48.05
2019-05-13T23:31:52.092Z,48.04
2019-05-13T23:34:17.999Z,48.21
2019-05-13T23:36:44.038Z,48.32
2019-05-13T23:39:11.678Z,48.29
2019-05-13T23:41:37.708Z,48.38
2019-05-13T23:44:03.861Z,48.28
2019-05-13T23:46:31.421Z,48.29
2019-05-13T23:48:57.364Z,48.40
2019-05-13T23:51:23.526Z,48.49
2019-05-13T23:53:51.031Z,48.81
2019-05-13T23:56:16.972Z,48.51
2019-05-13T23:58:43.038Z,48.45
